Time;durP1;ratioP1;P1;durP2;ratioP2;P2;SDS_P1;SDS_P2;PMS_P1;PMS_P2;Temp;Humidity;BMP_temperature;BMP_pressure;BME280_temperature;BME280_humidity;BME280_pressure;Samples;Min_cycle;Max_cycle;Signal;HPM_P1;HPM_P2
2022/08/16 00:00:09;;;;;;;3.65;1.58;;;19.70;87.30;;;;;;6274724;28;20060;-77
2022/08/16 00:03:13;;;;;;;2.58;1.20;;;19.60;87.70;;;;;;6273646;28;20045;-76
2022/08/16 00:06:14;;;;;;;4.60;1.20;;;19.50;88.50;;;;;;6266672;28;20045;-77
2022/08/16 00:09:16;;;;;;;2.85;1.40;;;19.50;89.20;;;;;;6263223;28;20385;-77
2022/08/16 00:12:18;;;;;;;2.63;1.75;;;19.50;89.30;;;;;;6248238;28;20056;-77
2022/08/16 00:15:24;;;;;;;4.45;1.52;;;19.50;89.30;;;;;;6265432;28;20068;-77
2022/08/16 00:18:27;;;;;;;2.33;1.40;;;19.40;89.20;;;;;;6274271;28;20037;-77
2022/08/16 00:21:29;;;;;;;4.30;1.48;;;19.40;89.20;;;;;;6277792;28;20068;-77
2022/08/16 00:24:32;;;;;;;1.63;1.30;;;19.40;89.20;;;;;;6280184;28;20053;-79
2022/08/16 00:27:34;;;;;;;2.00;1.40;;;19.30;89.20;;;;;;6281237;28;20045;-79
2022/08/16 00:30:36;;;;;;;2.47;1.75;;;19.30;89.50;;;;;;6280107;28;20051;-79
2022/08/16 00:33:39;;;;;;;2.17;1.25;;;19.20;89.80;;;;;;6280769;28;20043;-77
2022/08/16 00:36:41;;;;;;;1.52;0.95;;;19.20;89.90;;;;;;6280803;28;20051;-79
2022/08/16 00:39:43;;;;;;;2.95;1.38;;;19.10;90.00;;;;;;6280149;28;20052;-78
2022/08/16 00:42:44;;;;;;;1.35;1.13;;;19.10;90.10;;;;;;6279342;28;20044;-78
2022/08/16 00:45:57;;;;;;;2.67;1.23;;;19.00;90.20;;;;;;6278716;28;20049;-78
2022/08/16 00:49:01;;;;;;;6.47;1.60;;;19.20;90.10;;;;;;6280506;28;20044;-79
2022/08/16 00:52:04;;;;;;;4.03;1.40;;;19.30;90.00;;;;;;6280487;28;20136;-79
2022/08/16 00:55:07;;;;;;;2.38;1.15;;;19.30;90.20;;;;;;6282756;28;20124;-78
2022/08/16 00:58:10;;;;;;;2.05;1.23;;;19.30;89.80;;;;;;6280974;28;20059;-79
2022/08/16 01:01:13;;;;;;;3.55;1.48;;;19.20;89.80;;;;;;6281230;28;20041;-79
2022/08/16 01:04:20;;;;;;;4.03;1.70;;;19.10;90.00;;;;;;6281845;28;20048;-77
2022/08/16 01:07:22;;;;;;;7.05;1.45;;;19.00;90.10;;;;;;6274188;28;20051;-77
2022/08/16 01:10:26;;;;;;;3.08;1.58;;;18.90;90.30;;;;;;6273585;28;20049;-76
2022/08/16 01:13:31;;;;;;;2.67;1.73;;;18.80;90.50;;;;;;6273999;28;20037;-76
2022/08/16 01:16:33;;;;;;;3.45;1.70;;;18.80;90.60;;;;;;6274235;28;20052;-76
2022/08/16 01:19:41;;;;;;;5.47;1.48;;;18.70;90.70;;;;;;6273972;28;20526;-75
2022/08/16 01:22:52;;;;;;;2.40;1.40;;;18.70;90.70;;;;;;6273936;28;20704;-76
2022/08/16 01:25:56;;;;;;;3.50;1.35;;;18.70;90.80;;;;;;6275480;28;20534;-76
2022/08/16 01:29:00;;;;;;;2.72;1.85;;;18.60;90.90;;;;;;6273414;28;20041;-76
2022/08/16 01:32:02;;;;;;;3.33;1.27;;;18.60;91.00;;;;;;6272686;28;20524;-77
2022/08/16 01:35:07;;;;;;;2.80;1.58;;;18.50;91.10;;;;;;6273567;28;20064;-77
2022/08/16 01:38:19;;;;;;;4.57;1.90;;;18.50;91.30;;;;;;6272601;28;20045;-77
2022/08/16 01:41:26;;;;;;;3.60;2.40;;;18.40;91.40;;;;;;6272970;28;20045;-76
2022/08/16 01:44:28;;;;;;;2.30;1.42;;;18.30;91.40;;;;;;6272820;28;20457;-77
2022/08/16 01:47:31;;;;;;;4.07;2.40;;;18.30;91.50;;;;;;6273124;28;20053;-76
2022/08/16 01:50:34;;;;;;;3.33;1.50;;;18.30;91.60;;;;;;6271463;28;20049;-77
2022/08/16 01:53:36;;;;;;;2.80;1.83;;;18.20;91.70;;;;;;6272495;28;20040;-76
2022/08/16 01:56:40;;;;;;;5.95;1.52;;;18.20;91.80;;;;;;6272685;28;20045;-76
2022/08/16 01:59:41;;;;;;;4.28;1.63;;;18.30;91.90;;;;;;6272920;28;20052;-77
2022/08/16 02:02:44;;;;;;;2.92;1.95;;;18.40;91.90;;;;;;6272248;28;20074;-77
2022/08/16 02:05:46;;;;;;;5.45;2.00;;;18.50;91.80;;;;;;6272329;28;20122;-77
2022/08/16 02:08:47;;;;;;;2.88;1.85;;;18.60;91.70;;;;;;6272131;28;20041;-77
2022/08/16 02:11:54;;;;;;;5.68;1.50;;;18.70;91.50;;;;;;6271814;28;20052;-76
2022/08/16 02:14:56;;;;;;;4.00;1.60;;;18.80;91.50;;;;;;6272595;28;20045;-76
2022/08/16 02:18:00;;;;;;;4.75;2.92;;;18.80;91.40;;;;;;6271736;28;20048;-76
2022/08/16 02:21:04;;;;;;;3.58;1.80;;;18.80;91.40;;;;;;6272063;28;20041;-77
2022/08/16 02:24:06;;;;;;;2.97;1.90;;;18.70;91.40;;;;;;6271804;28;20052;-76
2022/08/16 02:27:09;;;;;;;5.00;1.80;;;18.70;91.60;;;;;;6272452;28;20049;-76
2022/08/16 02:30:15;;;;;;;4.05;2.17;;;18.60;91.60;;;;;;6271560;28;20048;-76
2022/08/16 02:33:16;;;;;;;4.18;1.90;;;18.60;91.70;;;;;;6271766;28;20041;-77
2022/08/16 02:36:18;;;;;;;2.63;1.58;;;18.50;91.80;;;;;;6271956;28;20041;-76
2022/08/16 02:39:20;;;;;;;3.50;1.73;;;18.60;91.80;;;;;;6271935;28;20053;-76
2022/08/16 02:42:23;;;;;;;3.42;1.85;;;18.70;91.80;;;;;;6271412;28;20053;-76
2022/08/16 02:45:27;;;;;;;2.25;1.35;;;18.70;91.70;;;;;;6271462;28;20063;-78
2022/08/16 02:48:29;;;;;;;4.05;1.80;;;18.70;91.60;;;;;;6271251;28;20053;-76
2022/08/16 02:51:31;;;;;;;6.65;1.95;;;18.80;91.50;;;;;;6270461;28;20436;-77
2022/08/16 02:54:33;;;;;;;2.97;2.03;;;18.80;91.50;;;;;;6271175;28;20420;-76
2022/08/16 02:57:36;;;;;;;3.80;1.98;;;18.80;91.40;;;;;;6270990;28;20045;-76
2022/08/16 03:00:38;;;;;;;2.42;1.88;;;18.70;91.50;;;;;;6271116;28;20056;-76
2022/08/16 03:03:40;;;;;;;4.20;1.40;;;18.70;91.60;;;;;;6271296;28;20076;-76
2022/08/16 03:06:42;;;;;;;4.82;2.15;;;18.70;91.60;;;;;;6270873;28;20041;-77
2022/08/16 03:09:44;;;;;;;2.95;1.58;;;18.70;91.60;;;;;;6270782;28;20049;-76
2022/08/16 03:12:49;;;;;;;3.10;2.17;;;18.60;91.60;;;;;;6271139;28;20056;-76
2022/08/16 03:15:51;;;;;;;4.65;1.88;;;18.70;91.70;;;;;;6271693;28;20053;-76
2022/08/16 03:18:53;;;;;;;1.85;1.48;;;18.60;91.70;;;;;;6270981;28;20056;-77
2022/08/16 03:21:55;;;;;;;3.42;1.88;;;18.60;91.80;;;;;;6271569;28;20053;-76
2022/08/16 03:24:58;;;;;;;3.53;2.35;;;18.60;91.80;;;;;;6279385;28;20045;-76
2022/08/16 03:28:02;;;;;;;3.28;2.05;;;18.60;91.80;;;;;;6279100;28;20048;-76
2022/08/16 03:31:04;;;;;;;5.03;1.92;;;18.70;91.80;;;;;;6279226;28;20053;-76
2022/08/16 03:34:05;;;;;;;3.63;1.67;;;18.60;91.80;;;;;;6278962;28;20076;-76
2022/08/16 03:37:07;;;;;;;3.53;1.50;;;18.70;91.80;;;;;;6278811;28;20508;-77
2022/08/16 03:40:10;;;;;;;2.67;1.60;;;18.60;91.90;;;;;;6278662;28;20049;-76
2022/08/16 03:43:13;;;;;;;2.92;1.52;;;18.50;91.90;;;;;;6279596;28;20048;-76
2022/08/16 03:46:15;;;;;;;3.47;1.83;;;18.50;92.00;;;;;;6278815;28;20049;-76
2022/08/16 03:49:18;;;;;;;3.53;1.80;;;18.50;92.00;;;;;;6278665;28;20045;-76
2022/08/16 03:52:21;;;;;;;3.15;2.65;;;18.40;92.00;;;;;;6274731;28;20044;-77
2022/08/16 03:55:23;;;;;;;4.07;1.92;;;18.40;92.20;;;;;;6279029;28;20052;-76
2022/08/16 03:58:26;;;;;;;3.33;2.00;;;18.40;92.50;;;;;;6278424;28;20049;-76
2022/08/16 04:01:28;;;;;;;3.60;2.38;;;18.40;92.50;;;;;;6278480;28;20044;-76
2022/08/16 04:04:31;;;;;;;5.35;2.40;;;18.30;92.60;;;;;;6278437;28;20419;-76
2022/08/16 04:07:33;;;;;;;4.53;1.70;;;18.30;92.70;;;;;;6279109;28;20053;-77
2022/08/16 04:10:35;;;;;;;2.72;1.92;;;18.30;92.70;;;;;;6278558;28;20052;-77
2022/08/16 04:13:38;;;;;;;4.25;1.88;;;18.30;93.10;;;;;;6278432;28;20040;-77
2022/08/16 04:16:40;;;;;;;4.82;2.00;;;18.20;92.70;;;;;;6277999;28;20500;-76
2022/08/16 04:19:43;;;;;;;5.15;2.00;;;18.10;92.70;;;;;;6278813;28;20056;-77
2022/08/16 04:22:45;;;;;;;5.75;2.42;;;18.10;93.00;;;;;;6278329;28;20040;-78
2022/08/16 04:25:47;;;;;;;6.82;2.88;;;18.10;93.00;;;;;;6278292;28;20052;-76
2022/08/16 04:28:50;;;;;;;5.05;2.10;;;18.10;93.00;;;;;;6278242;28;20044;-76
2022/08/16 04:31:53;;;;;;;7.35;2.92;;;18.20;93.00;;;;;;6278233;28;20053;-77
2022/08/16 04:34:55;;;;;;;9.30;3.55;;;18.20;93.00;;;;;;6275079;28;20072;-77
2022/08/16 04:37:56;;;;;;;5.38;2.38;;;18.30;92.90;;;;;;6273945;28;20051;-77
2022/08/16 04:40:58;;;;;;;5.00;3.28;;;18.40;92.90;;;;;;6274152;28;20056;-78
2022/08/16 04:44:01;;;;;;;4.57;2.15;;;18.60;92.80;;;;;;6274014;28;20049;-77
2022/08/16 04:47:03;;;;;;;5.20;3.00;;;18.80;92.40;;;;;;6274454;28;20049;-77
2022/08/16 04:50:09;;;;;;;2.78;2.10;;;18.80;92.20;;;;;;6273574;28;20056;-77
2022/08/16 04:53:11;;;;;;;10.52;2.53;;;19.00;92.10;;;;;;6269683;28;20037;-77
2022/08/16 04:56:12;;;;;;;5.43;1.52;;;19.10;91.70;;;;;;6273240;28;20053;-76
2022/08/16 04:59:15;;;;;;;3.88;2.05;;;19.20;91.50;;;;;;6273943;28;20428;-76
2022/08/16 05:02:17;;;;;;;2.78;1.83;;;19.30;91.30;;;;;;6273592;28;20052;-77
2022/08/16 05:05:20;;;;;;;5.35;2.00;;;19.30;91.10;;;;;;6273501;28;20459;-77
2022/08/16 05:08:21;;;;;;;4.97;1.67;;;19.40;91.20;;;;;;6273312;28;20411;-77
2022/08/16 05:11:24;;;;;;;2.97;2.15;;;19.40;91.10;;;;;;6274197;28;20049;-79
2022/08/16 05:14:28;;;;;;;3.13;2.35;;;19.50;91.00;;;;;;6273456;28;20045;-78
2022/08/16 05:17:30;;;;;;;4.10;2.58;;;19.60;91.00;;;;;;6272997;28;20845;-76
2022/08/16 05:20:32;;;;;;;8.40;3.28;;;19.60;91.00;;;;;;6277083;28;20049;-79
2022/08/16 05:23:34;;;;;;;3.63;2.67;;;19.70;91.00;;;;;;6283711;28;20065;-78
2022/08/16 05:26:37;;;;;;;6.47;2.30;;;19.90;90.90;;;;;;6283723;28;20053;-79
2022/08/16 05:29:40;;;;;;;5.78;2.42;;;20.00;90.70;;;;;;6280259;28;20049;-77
2022/08/16 05:32:42;;;;;;;4.25;2.63;;;20.20;90.60;;;;;;6272671;28;20053;-77
2022/08/16 05:35:44;;;;;;;2.05;1.50;;;20.30;90.40;;;;;;6273254;28;20052;-77
2022/08/16 05:38:46;;;;;;;4.07;2.40;;;20.40;90.30;;;;;;6272577;28;20419;-77
2022/08/16 05:41:48;;;;;;;2.95;2.15;;;20.60;90.10;;;;;;6274513;28;20052;-80
2022/08/16 05:44:51;;;;;;;4.95;2.00;;;20.80;89.70;;;;;;6283130;28;20416;-76
2022/08/16 05:47:53;;;;;;;5.13;2.50;;;21.00;89.20;;;;;;6272873;28;20049;-79
2022/08/16 05:50:54;;;;;;;3.17;2.30;;;21.20;88.40;;;;;;6272978;28;20045;-77
2022/08/16 05:53:56;;;;;;;5.28;2.55;;;21.40;87.70;;;;;;6256800;28;20403;-78
2022/08/16 05:56:58;;;;;;;6.00;2.95;;;21.50;87.10;;;;;;6263136;28;20531;-78
2022/08/16 06:00:01;;;;;;;3.70;2.30;;;21.60;86.80;;;;;;6272281;28;20056;-78
2022/08/16 06:03:03;;;;;;;5.72;2.40;;;21.80;86.30;;;;;;6267217;28;20130;-77
2022/08/16 06:06:06;;;;;;;3.30;2.50;;;22.00;85.50;;;;;;6272878;28;20037;-78
2022/08/16 06:09:07;;;;;;;9.65;2.80;;;22.80;84.00;;;;;;6271838;28;20053;-78
2022/08/16 06:12:10;;;;;;;5.15;2.63;;;24.30;79.90;;;;;;6272205;28;20052;-78
2022/08/16 06:15:15;;;;;;;6.35;2.58;;;26.50;72.90;;;;;;6263816;28;20045;-79
2022/08/16 06:18:17;;;;;;;5.18;2.40;;;28.10;66.10;;;;;;6271529;28;20505;-79
2022/08/16 06:21:19;;;;;;;6.93;2.65;;;28.90;62.80;;;;;;6271486;28;20053;-77
2022/08/16 06:24:21;;;;;;;6.57;2.28;;;29.60;59.70;;;;;;6271452;28;20420;-79
2022/08/16 06:27:23;;;;;;;5.03;2.90;;;30.10;57.60;;;;;;6271773;28;20622;-78
2022/08/16 06:30:26;;;;;;;6.95;2.70;;;29.50;58.00;;;;;;6270963;28;20049;-78
2022/08/16 06:33:28;;;;;;;5.57;2.53;;;29.20;58.80;;;;;;6271988;28;20049;-76
2022/08/16 06:36:29;;;;;;;3.35;2.10;;;29.40;58.70;;;;;;6271446;28;20049;-76
2022/08/16 06:39:31;;;;;;;4.35;2.17;;;29.60;58.40;;;;;;6271591;28;20052;-76
2022/08/16 06:42:33;;;;;;;2.92;1.80;;;29.70;57.60;;;;;;6274001;28;20045;-77
2022/08/16 06:45:37;;;;;;;4.35;2.20;;;29.80;57.50;;;;;;6272196;28;20060;-78
2022/08/16 06:48:40;;;;;;;2.92;1.85;;;29.90;57.30;;;;;;6270485;28;20045;-78
2022/08/16 06:51:42;;;;;;;6.15;2.35;;;30.20;56.90;;;;;;6275998;28;20053;-78
2022/08/16 06:54:44;;;;;;;7.18;2.47;;;30.60;55.70;;;;;;6271401;28;20056;-77
2022/08/16 06:57:46;;;;;;;5.10;1.98;;;31.20;53.90;;;;;;6269409;28;20072;-78
2022/08/16 07:00:49;;;;;;;9.15;2.28;;;31.80;52.30;;;;;;6270738;28;20044;-78
2022/08/16 07:03:51;;;;;;;5.55;2.03;;;32.40;50.90;;;;;;6271319;28;20052;-77
2022/08/16 07:06:52;;;;;;;1.92;1.65;;;33.20;49.30;;;;;;6270594;28;20060;-78
2022/08/16 07:09:54;;;;;;;7.18;2.38;;;34.20;47.40;;;;;;6270450;28;20051;-77
2022/08/16 07:12:56;;;;;;;3.88;1.73;;;34.80;45.70;;;;;;6270762;28;20439;-78
2022/08/16 07:16:00;;;;;;;6.50;1.60;;;35.40;44.70;;;;;;6270898;28;20048;-77
2022/08/16 07:19:02;;;;;;;5.03;1.95;;;36.10;43.20;;;;;;6270849;28;20049;-78
2022/08/16 07:22:04;;;;;;;4.63;2.15;;;36.40;42.20;;;;;;6270595;28;20077;-78
2022/08/16 07:25:07;;;;;;;3.50;1.88;;;37.00;41.40;;;;;;6270804;28;20051;-78
2022/08/16 07:28:12;;;;;;;8.00;2.70;;;37.50;40.70;;;;;;6270238;28;20049;-78
2022/08/16 07:31:16;;;;;;;7.47;1.65;;;38.10;39.70;;;;;;6245235;28;20176;-77
2022/08/16 07:34:18;;;;;;;9.10;2.15;;;38.60;39.20;;;;;;6270402;28;20056;-78
2022/08/16 07:37:20;;;;;;;4.75;1.52;;;38.90;38.50;;;;;;6268615;28;20052;-80
2022/08/16 07:40:22;;;;;;;5.10;1.70;;;39.60;37.80;;;;;;6270491;28;20049;-80
2022/08/16 07:43:25;;;;;;;4.70;1.67;;;40.00;36.90;;;;;;6271282;28;20059;-79
2022/08/16 07:46:28;;;;;;;5.10;1.48;;;40.50;36.30;;;;;;6270323;28;20052;-78
2022/08/16 07:49:29;;;;;;;3.80;1.48;;;40.70;35.80;;;;;;6269671;28;20045;-79
2022/08/16 07:52:31;;;;;;;3.63;1.75;;;40.50;35.60;;;;;;6271132;28;20049;-79
2022/08/16 07:55:33;;;;;;;9.35;1.83;;;39.50;36.00;;;;;;6269491;28;20049;-79
2022/08/16 07:58:35;;;;;;;3.17;2.10;;;37.30;38.50;;;;;;6248193;28;20065;-78
2022/08/16 08:01:38;;;;;;;6.93;2.05;;;35.50;40.70;;;;;;6246635;28;20055;-79
2022/08/16 08:04:40;;;;;;;4.72;1.60;;;34.00;42.90;;;;;;6245580;28;20037;-79
2022/08/16 08:07:41;;;;;;;9.52;1.95;;;33.20;45.00;;;;;;6245735;28;20460;-78
2022/08/16 08:10:43;;;;;;;6.82;2.10;;;32.50;45.80;;;;;;6253649;28;20442;-78
2022/08/16 08:13:45;;;;;;;3.95;2.00;;;32.10;46.70;;;;;;6266163;28;20045;-78
2022/08/16 08:16:49;;;;;;;6.80;1.77;;;31.60;47.40;;;;;;6274889;28;20055;-78
2022/08/16 08:19:50;;;;;;;7.68;2.10;;;31.30;48.10;;;;;;6275529;28;20049;-79
2022/08/16 08:22:52;;;;;;;3.90;1.80;;;31.30;48.00;;;;;;6275793;28;20049;-79
2022/08/16 08:25:54;;;;;;;5.68;2.03;;;31.10;48.60;;;;;;6274811;28;20408;-79
2022/08/16 08:28:56;;;;;;;3.22;1.75;;;31.10;48.90;;;;;;6274647;28;20045;-78
2022/08/16 08:31:59;;;;;;;3.90;1.75;;;31.20;48.90;;;;;;6265734;28;20056;-79
2022/08/16 08:35:01;;;;;;;5.32;1.52;;;31.10;48.80;;;;;;6276040;28;20049;-81
2022/08/16 08:38:07;;;;;;;2.72;1.70;;;31.10;48.80;;;;;;6275016;28;20056;-78
2022/08/16 08:41:09;;;;;;;4.03;1.95;;;31.00;49.40;;;;;;6273402;28;20044;-78
2022/08/16 08:44:11;;;;;;;3.67;1.88;;;30.80;49.60;;;;;;6277137;28;20055;-78
2022/08/16 08:47:15;;;;;;;5.53;1.70;;;30.60;49.90;;;;;;6274769;28;20533;-78
2022/08/16 08:50:17;;;;;;;6.00;1.80;;;30.50;50.10;;;;;;6275096;28;20504;-79
2022/08/16 08:53:18;;;;;;;4.03;1.75;;;30.30;50.60;;;;;;6274944;28;20407;-78
2022/08/16 08:56:20;;;;;;;9.27;2.63;;;30.30;50.90;;;;;;6274258;28;20053;-78
2022/08/16 08:59:23;;;;;;;4.28;2.35;;;30.40;50.50;;;;;;6274933;28;20052;-78
2022/08/16 09:02:27;;;;;;;5.22;1.85;;;30.20;50.90;;;;;;6259219;28;20080;-78
2022/08/16 09:05:28;;;;;;;6.22;2.20;;;30.10;51.70;;;;;;6251159;28;20412;-78
2022/08/16 09:08:31;;;;;;;8.73;2.05;;;30.40;51.00;;;;;;6247200;28;20045;-78
2022/08/16 09:11:33;;;;;;;7.88;2.50;;;30.70;50.70;;;;;;6248727;28;20385;-77
2022/08/16 09:14:37;;;;;;;5.15;2.08;;;30.90;50.50;;;;;;6249153;28;20412;-79
2022/08/16 09:17:41;;;;;;;4.60;2.55;;;31.10;50.50;;;;;;6250107;28;20046;-78
2022/08/16 09:20:43;;;;;;;5.30;2.20;;;31.20;49.70;;;;;;6248116;28;20053;-78
2022/08/16 09:23:45;;;;;;;3.20;1.77;;;31.30;49.70;;;;;;6249112;28;20424;-78
2022/08/16 09:26:47;;;;;;;3.25;2.35;;;31.10;49.00;;;;;;6251480;28;20040;-78
2022/08/16 09:29:49;;;;;;;3.42;1.52;;;30.90;49.50;;;;;;6267625;28;20061;-79
2022/08/16 09:32:53;;;;;;;2.75;1.65;;;31.00;49.90;;;;;;6274776;28;20060;-80
2022/08/16 09:35:55;;;;;;;10.95;1.98;;;31.40;49.40;;;;;;6274410;28;20488;-79
2022/08/16 09:38:58;;;;;;;5.93;1.85;;;31.70;48.60;;;;;;6274937;28;20052;-79
2022/08/16 09:41:59;;;;;;;9.18;2.28;;;31.70;48.00;;;;;;6275224;28;20049;-79
2022/08/16 09:45:02;;;;;;;9.95;2.15;;;31.50;48.20;;;;;;6274266;28;20052;-80
2022/08/16 09:48:06;;;;;;;5.80;2.38;;;31.20;48.60;;;;;;6277403;28;20051;-79
2022/08/16 09:51:09;;;;;;;3.03;1.95;;;31.00;48.60;;;;;;6279292;28;20048;-79
2022/08/16 09:54:13;;;;;;;5.75;2.22;;;31.00;48.70;;;;;;6278348;28;20060;-79
2022/08/16 09:57:15;;;;;;;3.78;2.38;;;31.30;48.90;;;;;;6278783;28;20045;-79
2022/08/16 10:00:17;;;;;;;5.32;1.90;;;32.50;47.30;;;;;;6274753;28;20053;-81
2022/08/16 10:03:21;;;;;;;10.75;2.80;;;33.80;44.80;;;;;;6272217;28;20049;-80
2022/08/16 10:06:24;;;;;;;7.65;1.83;;;33.70;44.00;;;;;;6266892;28;20050;-78
2022/08/16 10:09:27;;;;;;;5.63;1.73;;;33.20;44.50;;;;;;6271205;28;20134;-78
2022/08/16 10:15:53;;;;;;;5.28;1.60;;;32.40;44.90;;;;;;6282861;28;20041;-82
2022/08/16 10:18:57;;;;;;;6.28;1.75;;;32.00;45.80;;;;;;6284991;28;20053;-78
2022/08/16 10:21:59;;;;;;;5.28;1.77;;;31.60;46.60;;;;;;6278629;28;20048;-78
2022/08/16 10:25:01;;;;;;;3.35;1.55;;;31.40;46.90;;;;;;6276779;28;20124;-80
2022/08/16 10:28:03;;;;;;;8.23;1.73;;;31.10;47.30;;;;;;6264412;28;20056;-81
2022/08/16 10:31:06;;;;;;;6.00;1.90;;;30.90;47.90;;;;;;6270796;28;20053;-80
2022/08/16 10:34:09;;;;;;;2.78;1.58;;;30.70;48.10;;;;;;6276211;28;20052;-79
2022/08/16 10:37:11;;;;;;;3.67;1.85;;;30.90;48.50;;;;;;6276603;28;20045;-80
2022/08/16 10:40:13;;;;;;;2.92;1.40;;;31.10;48.20;;;;;;6266430;28;20098;-80
2022/08/16 10:43:15;;;;;;;3.42;1.77;;;31.10;47.70;;;;;;6276215;28;20056;-80
2022/08/16 10:46:17;;;;;;;7.35;2.28;;;30.80;48.40;;;;;;6272620;28;20036;-80
2022/08/16 10:49:21;;;;;;;3.53;2.15;;;30.70;48.90;;;;;;6273729;28;20053;-80
2022/08/16 10:52:23;;;;;;;3.00;1.73;;;30.90;48.20;;;;;;6276342;28;20044;-80
2022/08/16 10:55:25;;;;;;;4.82;1.60;;;31.20;48.00;;;;;;6276785;28;20052;-80
2022/08/16 10:58:27;;;;;;;9.18;1.67;;;31.90;46.30;;;;;;6281314;28;20049;-79
2022/08/16 11:01:29;;;;;;;7.03;1.65;;;32.50;44.80;;;;;;6279232;28;20043;-80
2022/08/16 11:04:32;;;;;;;5.18;1.73;;;33.00;44.00;;;;;;6281604;28;20049;-81
2022/08/16 11:07:34;;;;;;;4.05;1.20;;;33.20;43.40;;;;;;6282866;28;20049;-81
2022/08/16 11:10:38;;;;;;;1.52;1.02;;;33.10;43.30;;;;;;6281923;28;20049;-80
2022/08/16 11:13:40;;;;;;;4.82;1.35;;;33.40;42.90;;;;;;6280198;28;20049;-82
2022/08/16 11:16:42;;;;;;;2.40;1.35;;;33.90;41.90;;;;;;6281332;28;20045;-83
2022/08/16 11:19:46;;;;;;;2.58;1.10;;;34.30;39.60;;;;;;6283638;28;20493;-80
2022/08/16 11:22:49;;;;;;;5.30;1.40;;;34.10;40.10;;;;;;6278313;28;20500;-80
2022/08/16 11:25:51;;;;;;;3.88;1.58;;;34.30;41.20;;;;;;6279807;28;20114;-80
2022/08/16 11:28:55;;;;;;;4.72;1.77;;;34.80;40.70;;;;;;6276162;28;20037;-79
2022/08/16 11:31:56;;;;;;;4.60;1.67;;;35.30;40.70;;;;;;6272227;28;20056;-82
2022/08/16 11:35:01;;;;;;;5.28;1.63;;;35.90;39.80;;;;;;6281640;28;20048;-82
2022/08/16 11:38:06;;;;;;;4.68;1.65;;;36.30;39.00;;;;;;6280581;28;20045;-80
2022/08/16 11:41:08;;;;;;;5.05;1.20;;;36.50;39.00;;;;;;6282035;28;20200;-81
2022/08/16 11:44:11;;;;;;;2.33;1.10;;;36.70;38.40;;;;;;6284244;28;20045;-82
2022/08/16 11:47:13;;;;;;;4.32;1.50;;;36.70;37.80;;;;;;6288292;28;20412;-81
2022/08/16 11:50:16;;;;;;;2.45;1.00;;;36.90;37.80;;;;;;6277395;28;20053;-82
2022/08/16 11:53:19;;;;;;;5.25;1.42;;;37.10;37.60;;;;;;6287405;28;20056;-83
2022/08/16 11:56:21;;;;;;;4.75;1.38;;;37.40;36.50;;;;;;6282049;28;20060;-82
2022/08/16 11:59:26;;;;;;;3.90;1.27;;;37.30;36.80;;;;;;6275895;28;20420;-82
2022/08/16 12:02:28;;;;;;;2.22;1.40;;;37.50;37.10;;;;;;6280424;28;20041;-82
2022/08/16 12:05:31;;;;;;;2.83;1.08;;;37.50;36.60;;;;;;6284328;28;20055;-82
2022/08/16 12:08:33;;;;;;;7.78;1.35;;;37.30;37.00;;;;;;6274566;28;20054;-83
2022/08/16 12:11:35;;;;;;;4.68;1.40;;;37.10;37.20;;;;;;6284291;28;20059;-83
2022/08/16 12:14:37;;;;;;;2.63;1.05;;;37.20;36.70;;;;;;6288517;28;20060;-83
2022/08/16 12:17:40;;;;;;;2.05;0.90;;;37.40;36.50;;;;;;6285952;28;20053;-82
2022/08/16 12:20:45;;;;;;;2.50;0.80;;;37.50;36.00;;;;;;6285841;28;20049;-83
2022/08/16 12:23:46;;;;;;;4.30;1.30;;;37.60;35.90;;;;;;6285459;28;20049;-83
2022/08/16 12:26:48;;;;;;;4.97;1.20;;;37.90;35.30;;;;;;6282799;28;20243;-83
2022/08/16 12:29:51;;;;;;;3.88;1.10;;;38.10;34.50;;;;;;6283390;28;20815;-83
2022/08/16 12:32:53;;;;;;;4.38;0.93;;;38.20;34.40;;;;;;6283124;28;20052;-82
2022/08/16 12:35:56;;;;;;;3.97;1.00;;;38.50;34.30;;;;;;6282772;28;20045;-83
2022/08/16 12:38:58;;;;;;;5.45;1.15;;;38.60;33.80;;;;;;6283962;28;20393;-83
2022/08/16 12:42:00;;;;;;;1.85;0.70;;;38.60;33.70;;;;;;6283703;28;20048;-83
2022/08/16 12:45:02;;;;;;;2.42;0.85;;;38.80;33.30;;;;;;6292923;28;20056;-82
2022/08/16 12:51:30;;;;;;;1.77;0.80;;;38.90;33.00;;;;;;6288587;28;20083;-83
2022/08/16 12:54:32;;;;;;;3.30;1.00;;;38.70;33.20;;;;;;6286676;28;20052;-83
2022/08/16 12:57:35;;;;;;;4.82;1.00;;;38.70;33.60;;;;;;6284286;28;20045;-83
2022/08/16 13:00:36;;;;;;;2.28;0.82;;;39.00;33.30;;;;;;6277556;28;20117;-83
2022/08/16 13:03:39;;;;;;;2.15;0.68;;;39.10;33.20;;;;;;6280432;28;20052;-83
2022/08/16 13:06:44;;;;;;;2.58;0.77;;;39.20;31.60;;;;;;6278185;28;20065;-81
2022/08/16 13:09:52;;;;;;;1.38;0.77;;;39.30;31.30;;;;;;6261554;28;20423;-83
2022/08/16 13:12:55;;;;;;;5.60;1.23;;;39.30;32.10;;;;;;6257437;28;20041;-83
2022/08/16 13:15:59;;;;;;;1.60;0.50;;;39.50;32.10;;;;;;6257770;28;20101;-82
2022/08/16 13:19:01;;;;;;;2.67;0.80;;;39.50;31.40;;;;;;6267406;28;20051;-83
2022/08/16 13:22:04;;;;;;;0.98;0.60;;;39.10;31.50;;;;;;6281807;28;20055;-82
2022/08/16 13:25:07;;;;;;;11.77;1.38;;;39.10;32.10;;;;;;6282503;28;20052;-82
2022/08/16 13:28:09;;;;;;;2.33;0.88;;;39.20;32.40;;;;;;6282739;28;20512;-83
2022/08/16 13:31:11;;;;;;;1.50;0.93;;;39.30;32.40;;;;;;6282344;28;20049;-82
2022/08/16 13:34:14;;;;;;;3.70;0.73;;;39.40;32.50;;;;;;6293976;28;20051;-82
2022/08/16 13:37:17;;;;;;;2.20;0.82;;;39.40;32.30;;;;;;6292500;28;20112;-80
2022/08/16 13:40:20;;;;;;;5.57;1.25;;;39.40;32.10;;;;;;6282120;28;20055;-83
2022/08/16 13:43:22;;;;;;;1.42;1.08;;;39.50;32.10;;;;;;6281661;28;20052;-83
2022/08/16 13:46:24;;;;;;;3.33;0.70;;;39.60;32.00;;;;;;6280666;28;20069;-82
2022/08/16 13:49:26;;;;;;;3.65;1.00;;;39.60;32.00;;;;;;6272651;28;20045;-82
2022/08/16 13:52:29;;;;;;;3.38;1.00;;;39.50;32.20;;;;;;6281071;28;20045;-83
2022/08/16 13:55:31;;;;;;;5.53;0.80;;;39.50;32.10;;;;;;6272340;28;20055;-83
2022/08/16 13:58:33;;;;;;;1.67;0.60;;;39.70;32.00;;;;;;6279865;28;20068;-83
2022/08/16 14:01:36;;;;;;;8.95;1.17;;;39.90;31.90;;;;;;6280752;28;20515;-83
2022/08/16 14:04:40;;;;;;;3.22;1.05;;;40.00;31.60;;;;;;6279805;28;20069;-83
2022/08/16 14:07:43;;;;;;;2.58;0.82;;;40.10;31.40;;;;;;6275811;28;20086;-83
2022/08/16 14:10:53;;;;;;;1.65;0.80;;;40.20;30.90;;;;;;6272074;28;20136;-82
2022/08/16 14:13:54;;;;;;;1.65;0.80;;;40.10;30.70;;;;;;6268043;28;20044;-83
2022/08/16 14:16:58;;;;;;;1.13;0.68;;;40.20;30.60;;;;;;6251428;28;20172;-82
2022/08/16 14:20:00;;;;;;;1.23;0.60;;;40.20;30.60;;;;;;6253589;28;20061;-82
2022/08/16 14:23:04;;;;;;;5.88;1.10;;;40.30;30.40;;;;;;6270231;28;20127;-82
2022/08/16 14:26:07;;;;;;;4.28;0.80;;;40.10;30.50;;;;;;6278384;28;20052;-82
2022/08/16 14:29:09;;;;;;;3.28;0.77;;;40.00;30.50;;;;;;6281117;28;20169;-82
2022/08/16 14:32:11;;;;;;;1.48;0.60;;;40.10;30.60;;;;;;6288925;28;20048;-82
2022/08/16 14:35:17;;;;;;;2.20;0.47;;;40.10;30.20;;;;;;6280129;28;20052;-83
2022/08/16 14:38:20;;;;;;;6.07;1.02;;;39.90;30.40;;;;;;6278892;28;20045;-83
2022/08/16 14:41:22;;;;;;;1.27;0.77;;;39.90;30.70;;;;;;6280761;28;20068;-83
2022/08/16 14:44:24;;;;;;;1.58;0.75;;;39.90;30.70;;;;;;6280200;28;20500;-83
2022/08/16 14:47:26;;;;;;;2.33;0.80;;;39.70;30.90;;;;;;6278738;28;20049;-83
2022/08/16 14:50:28;;;;;;;1.35;0.75;;;39.60;30.80;;;;;;6278955;28;20056;-83
2022/08/16 14:53:31;;;;;;;1.58;0.80;;;39.50;31.00;;;;;;6278902;28;20055;-83
2022/08/16 14:56:33;;;;;;;1.52;0.88;;;39.60;31.00;;;;;;6278799;28;20509;-82
2022/08/16 14:59:35;;;;;;;2.35;0.75;;;39.80;30.90;;;;;;6279091;28;20059;-82
2022/08/16 15:02:38;;;;;;;3.08;0.50;;;39.80;30.80;;;;;;6280030;28;20056;-82
2022/08/16 15:05:41;;;;;;;1.58;0.32;;;39.70;30.50;;;;;;6279379;28;20428;-82
2022/08/16 15:08:44;;;;;;;3.80;0.88;;;39.60;30.10;;;;;;6276451;28;20045;-82
2022/08/16 15:11:46;;;;;;;1.20;0.45;;;39.50;30.20;;;;;;6275566;28;20049;-82
2022/08/16 15:14:51;;;;;;;1.05;0.50;;;39.40;30.10;;;;;;6276498;28;20056;-83
2022/08/16 15:17:53;;;;;;;5.03;1.30;;;39.20;30.20;;;;;;6276012;28;20052;-84
2022/08/16 15:20:55;;;;;;;4.50;0.80;;;38.90;30.60;;;;;;6276879;28;20049;-82
2022/08/16 15:23:59;;;;;;;3.08;0.70;;;38.90;30.90;;;;;;6272687;28;20048;-83
2022/08/16 15:27:00;;;;;;;1.85;0.85;;;38.90;31.00;;;;;;6262993;28;20051;-82
2022/08/16 15:30:04;;;;;;;1.23;0.80;;;38.90;31.00;;;;;;6277805;28;20140;-82
2022/08/16 15:33:08;;;;;;;2.90;0.98;;;38.90;31.00;;;;;;6264765;28;20061;-82
2022/08/16 15:36:16;;;;;;;3.63;0.65;;;39.00;30.80;;;;;;6281142;28;20053;-83
2022/08/16 15:39:19;;;;;;;3.15;0.60;;;39.10;30.90;;;;;;6277939;28;20059;-82
2022/08/16 15:42:21;;;;;;;3.45;1.02;;;39.30;30.80;;;;;;6277899;28;20504;-83
2022/08/16 15:48:40;;;;;;;0.52;0.40;;;39.00;30.60;;;;;;6276706;28;20105;-83
2022/08/16 15:51:43;;;;;;;2.00;0.90;;;38.90;30.40;;;;;;6277948;28;20045;-83
2022/08/16 15:54:46;;;;;;;2.38;0.70;;;38.80;30.30;;;;;;6280238;28;20084;-83
2022/08/16 15:57:48;;;;;;;2.47;0.70;;;38.70;30.30;;;;;;6278943;28;20041;-82